sensor_id;sensor_type;location;lat;lon;timestamp;P1;durP1;ratioP1;P2;durP2;ratioP2
34832;SDS011;55941;50.800;4.342;2023-06-26T00:00:27;6.30;;;4.10;;
34832;SDS011;55941;50.800;4.342;2023-06-26T00:02:54;4.97;;;3.38;;
34832;SDS011;55941;50.800;4.342;2023-06-26T00:05:20;11.95;;;4.15;;
34832;SDS011;55941;50.800;4.342;2023-06-26T00:07:45;12.63;;;3.38;;
34832;SDS011;55941;50.800;4.342;2023-06-26T00:10:11;13.07;;;3.78;;
34832;SDS011;55941;50.800;4.342;2023-06-26T00:12:37;10.10;;;3.30;;
34832;SDS011;55941;50.800;4.342;2023-06-26T00:15:02;9.38;;;3.58;;
34832;SDS011;55941;50.800;4.342;2023-06-26T00:17:28;11.82;;;4.05;;
34832;SDS011;55941;50.800;4.342;2023-06-26T00:19:54;9.60;;;3.50;;
34832;SDS011;55941;50.800;4.342;2023-06-26T00:22:20;9.32;;;3.35;;
34832;SDS011;55941;50.800;4.342;2023-06-26T00:24:46;4.28;;;3.10;;
34832;SDS011;55941;50.800;4.342;2023-06-26T00:27:12;5.88;;;3.30;;
34832;SDS011;55941;50.800;4.342;2023-06-26T00:29:39;5.20;;;2.83;;
34832;SDS011;55941;50.800;4.342;2023-06-26T00:32:06;6.85;;;3.67;;
34832;SDS011;55941;50.800;4.342;2023-06-26T00:34:31;4.95;;;3.50;;
34832;SDS011;55941;50.800;4.342;2023-06-26T00:36:57;12.65;;;3.95;;
34832;SDS011;55941;50.800;4.342;2023-06-26T00:39:23;8.20;;;4.00;;
34832;SDS011;55941;50.800;4.342;2023-06-26T00:41:51;14.63;;;3.53;;
34832;SDS011;55941;50.800;4.342;2023-06-26T00:44:18;8.10;;;3.30;;
34832;SDS011;55941;50.800;4.342;2023-06-26T00:46:45;12.73;;;4.00;;
34832;SDS011;55941;50.800;4.342;2023-06-26T00:49:12;11.48;;;3.75;;
34832;SDS011;55941;50.800;4.342;2023-06-26T00:51:38;6.63;;;3.40;;
34832;SDS011;55941;50.800;4.342;2023-06-26T00:54:03;9.73;;;3.35;;
34832;SDS011;55941;50.800;4.342;2023-06-26T00:56:30;5.72;;;3.30;;
34832;SDS011;55941;50.800;4.342;2023-06-26T00:58:57;8.57;;;3.72;;
34832;SDS011;55941;50.800;4.342;2023-06-26T01:01:23;7.68;;;3.85;;
34832;SDS011;55941;50.800;4.342;2023-06-26T01:03:50;10.23;;;3.53;;
34832;SDS011;55941;50.800;4.342;2023-06-26T01:06:18;9.13;;;3.35;;
34832;SDS011;55941;50.800;4.342;2023-06-26T01:08:45;9.38;;;3.50;;
34832;SDS011;55941;50.800;4.342;2023-06-26T01:11:13;6.90;;;3.20;;
34832;SDS011;55941;50.800;4.342;2023-06-26T01:13:41;8.35;;;3.65;;
34832;SDS011;55941;50.800;4.342;2023-06-26T01:16:09;7.88;;;3.88;;
34832;SDS011;55941;50.800;4.342;2023-06-26T01:18:35;6.78;;;3.17;;
34832;SDS011;55941;50.800;4.342;2023-06-26T01:21:07;12.20;;;3.42;;
34832;SDS011;55941;50.800;4.342;2023-06-26T01:28:47;7.25;;;3.22;;
34832;SDS011;55941;50.800;4.342;2023-06-26T01:31:15;6.43;;;3.13;;
34832;SDS011;55941;50.800;4.342;2023-06-26T01:33:42;5.55;;;3.42;;
34832;SDS011;55941;50.800;4.342;2023-06-26T01:36:08;7.55;;;3.30;;
34832;SDS011;55941;50.800;4.342;2023-06-26T01:38:35;19.08;;;3.70;;
34832;SDS011;55941;50.800;4.342;2023-06-26T01:41:01;8.40;;;3.55;;
34832;SDS011;55941;50.800;4.342;2023-06-26T01:49:03;7.38;;;3.80;;
34832;SDS011;55941;50.800;4.342;2023-06-26T01:51:45;10.40;;;3.88;;
34832;SDS011;55941;50.800;4.342;2023-06-26T01:54:17;7.88;;;4.03;;
34832;SDS011;55941;50.800;4.342;2023-06-26T01:56:47;5.65;;;3.42;;
34832;SDS011;55941;50.800;4.342;2023-06-26T01:59:15;11.05;;;3.38;;
34832;SDS011;55941;50.800;4.342;2023-06-26T02:01:44;11.27;;;4.00;;
34832;SDS011;55941;50.800;4.342;2023-06-26T02:04:09;12.57;;;3.80;;
34832;SDS011;55941;50.800;4.342;2023-06-26T02:06:35;9.02;;;3.40;;
34832;SDS011;55941;50.800;4.342;2023-06-26T02:09:01;9.07;;;3.78;;
34832;SDS011;55941;50.800;4.342;2023-06-26T02:11:28;7.88;;;3.40;;
34832;SDS011;55941;50.800;4.342;2023-06-26T02:13:54;12.10;;;4.10;;
34832;SDS011;55941;50.800;4.342;2023-06-26T02:16:20;10.05;;;3.75;;
34832;SDS011;55941;50.800;4.342;2023-06-26T02:18:45;8.55;;;3.75;;
34832;SDS011;55941;50.800;4.342;2023-06-26T02:21:11;11.25;;;3.78;;
34832;SDS011;55941;50.800;4.342;2023-06-26T02:23:38;8.55;;;3.58;;
34832;SDS011;55941;50.800;4.342;2023-06-26T02:26:04;16.05;;;4.68;;
34832;SDS011;55941;50.800;4.342;2023-06-26T02:28:29;11.93;;;4.00;;
34832;SDS011;55941;50.800;4.342;2023-06-26T02:30:56;13.75;;;4.13;;
34832;SDS011;55941;50.800;4.342;2023-06-26T02:33:22;15.05;;;4.10;;
34832;SDS011;55941;50.800;4.342;2023-06-26T02:35:48;12.80;;;4.00;;
34832;SDS011;55941;50.800;4.342;2023-06-26T02:38:15;11.70;;;4.18;;
34832;SDS011;55941;50.800;4.342;2023-06-26T02:40:41;11.50;;;4.13;;
34832;SDS011;55941;50.800;4.342;2023-06-26T02:43:06;12.50;;;3.92;;
34832;SDS011;55941;50.800;4.342;2023-06-26T02:45:32;14.00;;;3.95;;
34832;SDS011;55941;50.800;4.342;2023-06-26T02:47:58;12.40;;;4.22;;
34832;SDS011;55941;50.800;4.342;2023-06-26T02:50:23;15.98;;;4.88;;
34832;SDS011;55941;50.800;4.342;2023-06-26T02:52:49;12.60;;;4.07;;
34832;SDS011;55941;50.800;4.342;2023-06-26T02:55:17;13.57;;;4.18;;
34832;SDS011;55941;50.800;4.342;2023-06-26T02:57:44;11.80;;;4.50;;
34832;SDS011;55941;50.800;4.342;2023-06-26T03:00:10;16.02;;;4.57;;
34832;SDS011;55941;50.800;4.342;2023-06-26T03:02:36;18.33;;;4.72;;
34832;SDS011;55941;50.800;4.342;2023-06-26T03:05:02;12.27;;;3.97;;
34832;SDS011;55941;50.800;4.342;2023-06-26T03:07:29;21.80;;;5.18;;
34832;SDS011;55941;50.800;4.342;2023-06-26T03:09:55;13.23;;;4.22;;
34832;SDS011;55941;50.800;4.342;2023-06-26T03:12:21;16.23;;;4.60;;
34832;SDS011;55941;50.800;4.342;2023-06-26T03:14:46;11.38;;;4.03;;
34832;SDS011;55941;50.800;4.342;2023-06-26T03:17:12;14.70;;;4.13;;
34832;SDS011;55941;50.800;4.342;2023-06-26T03:19:38;14.35;;;4.70;;
34832;SDS011;55941;50.800;4.342;2023-06-26T03:22:03;13.65;;;5.07;;
34832;SDS011;55941;50.800;4.342;2023-06-26T03:24:29;15.40;;;4.88;;
34832;SDS011;55941;50.800;4.342;2023-06-26T03:26:55;18.30;;;5.05;;
34832;SDS011;55941;50.800;4.342;2023-06-26T03:29:20;16.65;;;4.60;;
34832;SDS011;55941;50.800;4.342;2023-06-26T03:31:47;23.58;;;5.65;;
34832;SDS011;55941;50.800;4.342;2023-06-26T03:34:13;22.90;;;4.70;;
34832;SDS011;55941;50.800;4.342;2023-06-26T03:36:38;15.30;;;4.20;;
34832;SDS011;55941;50.800;4.342;2023-06-26T03:39:04;16.50;;;4.45;;
34832;SDS011;55941;50.800;4.342;2023-06-26T03:41:30;21.35;;;5.05;;
34832;SDS011;55941;50.800;4.342;2023-06-26T03:43:56;18.33;;;5.25;;
34832;SDS011;55941;50.800;4.342;2023-06-26T03:46:21;20.20;;;5.78;;
34832;SDS011;55941;50.800;4.342;2023-06-26T03:48:47;21.73;;;5.30;;
34832;SDS011;55941;50.800;4.342;2023-06-26T03:51:13;19.20;;;5.45;;
34832;SDS011;55941;50.800;4.342;2023-06-26T03:53:40;16.33;;;5.10;;
34832;SDS011;55941;50.800;4.342;2023-06-26T03:56:05;20.02;;;5.05;;
34832;SDS011;55941;50.800;4.342;2023-06-26T03:58:31;19.63;;;5.10;;
34832;SDS011;55941;50.800;4.342;2023-06-26T04:00:57;22.80;;;4.90;;
34832;SDS011;55941;50.800;4.342;2023-06-26T04:03:23;21.25;;;4.35;;
34832;SDS011;55941;50.800;4.342;2023-06-26T04:05:49;26.38;;;5.32;;
34832;SDS011;55941;50.800;4.342;2023-06-26T04:08:14;16.15;;;4.88;;
34832;SDS011;55941;50.800;4.342;2023-06-26T04:10:40;29.52;;;5.78;;
34832;SDS011;55941;50.800;4.342;2023-06-26T04:13:06;24.45;;;5.30;;
34832;SDS011;55941;50.800;4.342;2023-06-26T04:15:32;25.48;;;5.45;;
34832;SDS011;55941;50.800;4.342;2023-06-26T04:17:57;23.92;;;5.35;;
34832;SDS011;55941;50.800;4.342;2023-06-26T04:20:23;24.17;;;4.93;;
34832;SDS011;55941;50.800;4.342;2023-06-26T04:22:49;24.67;;;5.32;;
34832;SDS011;55941;50.800;4.342;2023-06-26T04:25:14;28.55;;;5.13;;
34832;SDS011;55941;50.800;4.342;2023-06-26T04:27:40;24.52;;;5.75;;
34832;SDS011;55941;50.800;4.342;2023-06-26T04:30:06;30.08;;;5.65;;
34832;SDS011;55941;50.800;4.342;2023-06-26T04:32:33;16.85;;;4.97;;
34832;SDS011;55941;50.800;4.342;2023-06-26T04:34:59;23.67;;;5.45;;
34832;SDS011;55941;50.800;4.342;2023-06-26T04:37:25;22.27;;;5.93;;
34832;SDS011;55941;50.800;4.342;2023-06-26T04:39:51;31.95;;;5.93;;
34832;SDS011;55941;50.800;4.342;2023-06-26T04:42:17;24.83;;;5.57;;
34832;SDS011;55941;50.800;4.342;2023-06-26T04:44:44;23.02;;;5.30;;
34832;SDS011;55941;50.800;4.342;2023-06-26T04:47:09;22.85;;;4.93;;
34832;SDS011;55941;50.800;4.342;2023-06-26T04:49:35;20.33;;;5.00;;
34832;SDS011;55941;50.800;4.342;2023-06-26T04:52:00;17.83;;;4.95;;
34832;SDS011;55941;50.800;4.342;2023-06-26T04:54:26;30.10;;;6.35;;
34832;SDS011;55941;50.800;4.342;2023-06-26T04:56:53;23.33;;;5.13;;
34832;SDS011;55941;50.800;4.342;2023-06-26T04:59:18;25.55;;;5.07;;
34832;SDS011;55941;50.800;4.342;2023-06-26T05:01:44;24.55;;;4.95;;
34832;SDS011;55941;50.800;4.342;2023-06-26T05:04:13;25.92;;;5.90;;
34832;SDS011;55941;50.800;4.342;2023-06-26T05:06:40;20.45;;;4.85;;
34832;SDS011;55941;50.800;4.342;2023-06-26T05:09:05;26.67;;;4.88;;
34832;SDS011;55941;50.800;4.342;2023-06-26T05:11:32;26.85;;;5.05;;
34832;SDS011;55941;50.800;4.342;2023-06-26T05:13:58;20.88;;;4.50;;
34832;SDS011;55941;50.800;4.342;2023-06-26T05:16:25;21.00;;;5.13;;
34832;SDS011;55941;50.800;4.342;2023-06-26T05:18:50;20.38;;;4.13;;
34832;SDS011;55941;50.800;4.342;2023-06-26T05:21:16;19.90;;;4.55;;
34832;SDS011;55941;50.800;4.342;2023-06-26T05:23:42;15.00;;;4.03;;
34832;SDS011;55941;50.800;4.342;2023-06-26T05:26:11;20.75;;;4.55;;
34832;SDS011;55941;50.800;4.342;2023-06-26T05:28:38;18.33;;;4.03;;
34832;SDS011;55941;50.800;4.342;2023-06-26T05:31:04;22.67;;;4.97;;
34832;SDS011;55941;50.800;4.342;2023-06-26T05:33:30;24.52;;;4.97;;
34832;SDS011;55941;50.800;4.342;2023-06-26T05:35:58;23.52;;;4.72;;
34832;SDS011;55941;50.800;4.342;2023-06-26T05:38:25;18.80;;;4.13;;
34832;SDS011;55941;50.800;4.342;2023-06-26T05:40:51;18.63;;;4.47;;
34832;SDS011;55941;50.800;4.342;2023-06-26T05:43:17;27.48;;;4.93;;
34832;SDS011;55941;50.800;4.342;2023-06-26T05:45:46;27.75;;;4.55;;
34832;SDS011;55941;50.800;4.342;2023-06-26T05:48:13;18.70;;;4.10;;
34832;SDS011;55941;50.800;4.342;2023-06-26T05:50:39;14.35;;;3.83;;
34832;SDS011;55941;50.800;4.342;2023-06-26T05:53:07;24.92;;;4.05;;
34832;SDS011;55941;50.800;4.342;2023-06-26T05:55:33;17.95;;;4.40;;
34832;SDS011;55941;50.800;4.342;2023-06-26T05:57:59;18.48;;;4.78;;
34832;SDS011;55941;50.800;4.342;2023-06-26T06:00:27;15.05;;;3.38;;
34832;SDS011;55941;50.800;4.342;2023-06-26T06:02:53;17.27;;;3.45;;
34832;SDS011;55941;50.800;4.342;2023-06-26T06:05:20;17.30;;;3.33;;
34832;SDS011;55941;50.800;4.342;2023-06-26T06:07:47;17.90;;;3.20;;
34832;SDS011;55941;50.800;4.342;2023-06-26T06:10:13;26.08;;;3.78;;
34832;SDS011;55941;50.800;4.342;2023-06-26T06:12:39;20.42;;;3.45;;
34832;SDS011;55941;50.800;4.342;2023-06-26T06:15:05;14.02;;;3.00;;
34832;SDS011;55941;50.800;4.342;2023-06-26T06:17:31;15.20;;;3.42;;
34832;SDS011;55941;50.800;4.342;2023-06-26T06:19:56;13.10;;;2.70;;
34832;SDS011;55941;50.800;4.342;2023-06-26T06:22:22;14.20;;;3.35;;
34832;SDS011;55941;50.800;4.342;2023-06-26T06:24:48;9.50;;;2.63;;
34832;SDS011;55941;50.800;4.342;2023-06-26T06:27:15;15.88;;;2.47;;
34832;SDS011;55941;50.800;4.342;2023-06-26T06:29:41;10.68;;;2.70;;
34832;SDS011;55941;50.800;4.342;2023-06-26T06:32:07;17.92;;;2.78;;
34832;SDS011;55941;50.800;4.342;2023-06-26T06:34:33;17.92;;;3.20;;
34832;SDS011;55941;50.800;4.342;2023-06-26T06:36:59;15.73;;;3.08;;
34832;SDS011;55941;50.800;4.342;2023-06-26T06:39:25;11.40;;;2.38;;
34832;SDS011;55941;50.800;4.342;2023-06-26T06:41:51;17.25;;;2.60;;
34832;SDS011;55941;50.800;4.342;2023-06-26T06:44:16;19.42;;;1.90;;
34832;SDS011;55941;50.800;4.342;2023-06-26T06:46:42;18.80;;;2.97;;
34832;SDS011;55941;50.800;4.342;2023-06-26T06:49:09;19.98;;;2.78;;
34832;SDS011;55941;50.800;4.342;2023-06-26T06:51:34;12.30;;;2.97;;
34832;SDS011;55941;50.800;4.342;2023-06-26T06:54:00;13.82;;;2.75;;
34832;SDS011;55941;50.800;4.342;2023-06-26T06:56:26;10.15;;;2.20;;
34832;SDS011;55941;50.800;4.342;2023-06-26T06:58:52;12.57;;;2.30;;
34832;SDS011;55941;50.800;4.342;2023-06-26T07:01:18;10.30;;;2.10;;
34832;SDS011;55941;50.800;4.342;2023-06-26T07:03:44;15.27;;;2.17;;
34832;SDS011;55941;50.800;4.342;2023-06-26T07:06:10;13.68;;;2.65;;
34832;SDS011;55941;50.800;4.342;2023-06-26T07:08:35;14.15;;;2.55;;
34832;SDS011;55941;50.800;4.342;2023-06-26T07:11:01;10.57;;;2.40;;
34832;SDS011;55941;50.800;4.342;2023-06-26T07:13:28;11.68;;;1.80;;
34832;SDS011;55941;50.800;4.342;2023-06-26T07:15:53;10.32;;;2.17;;
34832;SDS011;55941;50.800;4.342;2023-06-26T07:18:19;9.55;;;1.90;;
34832;SDS011;55941;50.800;4.342;2023-06-26T07:20:45;11.13;;;2.00;;
34832;SDS011;55941;50.800;4.342;2023-06-26T07:23:11;15.45;;;2.55;;
34832;SDS011;55941;50.800;4.342;2023-06-26T07:25:37;15.35;;;2.88;;
34832;SDS011;55941;50.800;4.342;2023-06-26T07:28:02;15.13;;;2.35;;
34832;SDS011;55941;50.800;4.342;2023-06-26T07:30:28;8.15;;;2.10;;
34832;SDS011;55941;50.800;4.342;2023-06-26T07:32:55;16.95;;;2.80;;
34832;SDS011;55941;50.800;4.342;2023-06-26T07:35:21;18.60;;;2.60;;
34832;SDS011;55941;50.800;4.342;2023-06-26T07:37:47;18.00;;;2.40;;
34832;SDS011;55941;50.800;4.342;2023-06-26T07:40:12;10.57;;;2.22;;
34832;SDS011;55941;50.800;4.342;2023-06-26T07:42:38;12.57;;;2.35;;
34832;SDS011;55941;50.800;4.342;2023-06-26T07:45:05;13.00;;;2.58;;
34832;SDS011;55941;50.800;4.342;2023-06-26T07:47:36;11.90;;;2.45;;
34832;SDS011;55941;50.800;4.342;2023-06-26T07:50:02;11.70;;;2.30;;
34832;SDS011;55941;50.800;4.342;2023-06-26T07:52:28;11.15;;;2.20;;
34832;SDS011;55941;50.800;4.342;2023-06-26T07:54:55;14.32;;;2.35;;
34832;SDS011;55941;50.800;4.342;2023-06-26T07:57:21;12.40;;;2.20;;
34832;SDS011;55941;50.800;4.342;2023-06-26T07:59:46;7.15;;;1.65;;
34832;SDS011;55941;50.800;4.342;2023-06-26T08:02:12;13.85;;;2.08;;
34832;SDS011;55941;50.800;4.342;2023-06-26T08:04:38;4.85;;;1.55;;
34832;SDS011;55941;50.800;4.342;2023-06-26T08:07:03;6.00;;;1.65;;
34832;SDS011;55941;50.800;4.342;2023-06-26T08:09:30;9.60;;;2.20;;
34832;SDS011;55941;50.800;4.342;2023-06-26T08:11:56;22.00;;;2.80;;
34832;SDS011;55941;50.800;4.342;2023-06-26T08:14:22;19.40;;;1.88;;
34832;SDS011;55941;50.800;4.342;2023-06-26T08:16:48;7.45;;;2.08;;
34832;SDS011;55941;50.800;4.342;2023-06-26T08:19:15;12.75;;;2.33;;
34832;SDS011;55941;50.800;4.342;2023-06-26T08:21:45;8.85;;;1.73;;
34832;SDS011;55941;50.800;4.342;2023-06-26T08:24:11;10.20;;;2.05;;
34832;SDS011;55941;50.800;4.342;2023-06-26T08:26:42;9.27;;;2.00;;
34832;SDS011;55941;50.800;4.342;2023-06-26T08:29:09;6.65;;;1.55;;
34832;SDS011;55941;50.800;4.342;2023-06-26T08:31:36;13.27;;;1.98;;
34832;SDS011;55941;50.800;4.342;2023-06-26T08:34:02;8.98;;;1.85;;
34832;SDS011;55941;50.800;4.342;2023-06-26T08:36:28;9.85;;;1.90;;
34832;SDS011;55941;50.800;4.342;2023-06-26T08:38:54;10.95;;;1.77;;
34832;SDS011;55941;50.800;4.342;2023-06-26T08:41:20;9.95;;;1.83;;
34832;SDS011;55941;50.800;4.342;2023-06-26T08:43:46;4.22;;;1.70;;
34832;SDS011;55941;50.800;4.342;2023-06-26T08:46:13;7.10;;;1.85;;
34832;SDS011;55941;50.800;4.342;2023-06-26T08:48:39;17.25;;;2.00;;
34832;SDS011;55941;50.800;4.342;2023-06-26T08:51:11;6.25;;;1.70;;
34832;SDS011;55941;50.800;4.342;2023-06-26T08:53:43;8.63;;;1.38;;
34832;SDS011;55941;50.800;4.342;2023-06-26T08:56:12;8.15;;;1.42;;
34832;SDS011;55941;50.800;4.342;2023-06-26T08:58:42;7.20;;;1.52;;
34832;SDS011;55941;50.800;4.342;2023-06-26T09:01:08;6.45;;;1.50;;
34832;SDS011;55941;50.800;4.342;2023-06-26T09:03:35;12.90;;;1.92;;
34832;SDS011;55941;50.800;4.342;2023-06-26T09:06:01;7.82;;;1.50;;
34832;SDS011;55941;50.800;4.342;2023-06-26T09:08:26;8.57;;;1.95;;
34832;SDS011;55941;50.800;4.342;2023-06-26T09:10:52;9.20;;;1.80;;
34832;SDS011;55941;50.800;4.342;2023-06-26T09:13:18;13.40;;;2.17;;
34832;SDS011;55941;50.800;4.342;2023-06-26T09:15:45;9.07;;;1.50;;
34832;SDS011;55941;50.800;4.342;2023-06-26T09:18:12;10.60;;;1.77;;
34832;SDS011;55941;50.800;4.342;2023-06-26T09:20:41;7.70;;;1.80;;
34832;SDS011;55941;50.800;4.342;2023-06-26T09:23:07;5.07;;;1.40;;
34832;SDS011;55941;50.800;4.342;2023-06-26T09:25:34;5.47;;;1.65;;
34832;SDS011;55941;50.800;4.342;2023-06-26T09:28:04;5.28;;;1.60;;
34832;SDS011;55941;50.800;4.342;2023-06-26T09:30:31;10.07;;;1.83;;
34832;SDS011;55941;50.800;4.342;2023-06-26T09:32:57;8.40;;;1.60;;
34832;SDS011;55941;50.800;4.342;2023-06-26T09:35:37;3.92;;;1.40;;
34832;SDS011;55941;50.800;4.342;2023-06-26T09:38:03;6.03;;;1.52;;
34832;SDS011;55941;50.800;4.342;2023-06-26T09:40:29;9.88;;;1.60;;
34832;SDS011;55941;50.800;4.342;2023-06-26T09:43:02;8.85;;;2.13;;
34832;SDS011;55941;50.800;4.342;2023-06-26T09:45:29;4.07;;;1.52;;
34832;SDS011;55941;50.800;4.342;2023-06-26T09:47:59;4.90;;;1.70;;
34832;SDS011;55941;50.800;4.342;2023-06-26T09:50:27;4.68;;;1.42;;
34832;SDS011;55941;50.800;4.342;2023-06-26T09:52:54;10.20;;;1.88;;
34832;SDS011;55941;50.800;4.342;2023-06-26T09:55:20;7.93;;;1.83;;
34832;SDS011;55941;50.800;4.342;2023-06-26T09:57:47;7.07;;;1.65;;
34832;SDS011;55941;50.800;4.342;2023-06-26T10:00:14;15.20;;;1.50;;
34832;SDS011;55941;50.800;4.342;2023-06-26T10:02:41;4.20;;;1.50;;
34832;SDS011;55941;50.800;4.342;2023-06-26T10:05:06;6.32;;;1.73;;
34832;SDS011;55941;50.800;4.342;2023-06-26T10:07:32;13.93;;;1.48;;
34832;SDS011;55941;50.800;4.342;2023-06-26T10:09:59;6.78;;;1.65;;
34832;SDS011;55941;50.800;4.342;2023-06-26T10:12:28;3.40;;;1.35;;
34832;SDS011;55941;50.800;4.342;2023-06-26T10:14:58;5.07;;;1.23;;
34832;SDS011;55941;50.800;4.342;2023-06-26T10:17:27;9.40;;;1.65;;
34832;SDS011;55941;50.800;4.342;2023-06-26T10:19:55;8.02;;;1.55;;
34832;SDS011;55941;50.800;4.342;2023-06-26T10:22:25;5.78;;;1.48;;
34832;SDS011;55941;50.800;4.342;2023-06-26T10:24:54;4.72;;;1.67;;
34832;SDS011;55941;50.800;4.342;2023-06-26T10:27:24;5.28;;;1.60;;
34832;SDS011;55941;50.800;4.342;2023-06-26T10:29:56;5.80;;;1.67;;
34832;SDS011;55941;50.800;4.342;2023-06-26T10:32:24;6.18;;;2.20;;
34832;SDS011;55941;50.800;4.342;2023-06-26T10:34:52;8.25;;;1.85;;
34832;SDS011;55941;50.800;4.342;2023-06-26T10:37:20;6.72;;;1.85;;
34832;SDS011;55941;50.800;4.342;2023-06-26T10:39:46;9.15;;;1.75;;
34832;SDS011;55941;50.800;4.342;2023-06-26T10:42:14;8.77;;;1.85;;
34832;SDS011;55941;50.800;4.342;2023-06-26T10:44:41;8.35;;;1.80;;
34832;SDS011;55941;50.800;4.342;2023-06-26T10:47:08;14.20;;;2.13;;
34832;SDS011;55941;50.800;4.342;2023-06-26T10:49:36;5.75;;;1.42;;
34832;SDS011;55941;50.800;4.342;2023-06-26T10:52:04;10.32;;;1.92;;
34832;SDS011;55941;50.800;4.342;2023-06-26T10:54:30;4.78;;;1.63;;
34832;SDS011;55941;50.800;4.342;2023-06-26T10:56:58;8.10;;;1.50;;
34832;SDS011;55941;50.800;4.342;2023-06-26T10:59:28;6.88;;;1.58;;
34832;SDS011;55941;50.800;4.342;2023-06-26T11:05:06;5.78;;;1.50;;
34832;SDS011;55941;50.800;4.342;2023-06-26T11:07:29;5.22;;;1.42;;
34832;SDS011;55941;50.800;4.342;2023-06-26T11:09:58;6.18;;;1.45;;
34832;SDS011;55941;50.800;4.342;2023-06-26T11:12:35;11.73;;;2.40;;
34832;SDS011;55941;50.800;4.342;2023-06-26T11:15:02;8.15;;;1.67;;
34832;SDS011;55941;50.800;4.342;2023-06-26T11:17:35;9.90;;;1.60;;
34832;SDS011;55941;50.800;4.342;2023-06-26T11:20:02;7.25;;;1.10;;
34832;SDS011;55941;50.800;4.342;2023-06-26T11:22:30;7.45;;;1.60;;
34832;SDS011;55941;50.800;4.342;2023-06-26T11:24:59;3.80;;;1.13;;
34832;SDS011;55941;50.800;4.342;2023-06-26T11:27:37;8.48;;;1.95;;
34832;SDS011;55941;50.800;4.342;2023-06-26T11:30:05;5.72;;;1.27;;
34832;SDS011;55941;50.800;4.342;2023-06-26T11:32:32;9.15;;;1.92;;
34832;SDS011;55941;50.800;4.342;2023-06-26T11:34:58;7.97;;;1.55;;
34832;SDS011;55941;50.800;4.342;2023-06-26T11:37:25;5.38;;;1.25;;
34832;SDS011;55941;50.800;4.342;2023-06-26T11:39:57;9.00;;;1.42;;
34832;SDS011;55941;50.800;4.342;2023-06-26T11:42:24;5.03;;;1.45;;
34832;SDS011;55941;50.800;4.342;2023-06-26T11:44:50;3.30;;;1.42;;
34832;SDS011;55941;50.800;4.342;2023-06-26T11:47:17;10.35;;;1.33;;
34832;SDS011;55941;50.800;4.342;2023-06-26T11:49:48;5.28;;;1.20;;
34832;SDS011;55941;50.800;4.342;2023-06-26T11:52:15;4.03;;;1.30;;
34832;SDS011;55941;50.800;4.342;2023-06-26T11:54:42;13.80;;;1.70;;
34832;SDS011;55941;50.800;4.342;2023-06-26T11:57:08;10.50;;;1.58;;
34832;SDS011;55941;50.800;4.342;2023-06-26T11:59:42;7.23;;;1.67;;
34832;SDS011;55941;50.800;4.342;2023-06-26T12:02:13;7.85;;;1.27;;
34832;SDS011;55941;50.800;4.342;2023-06-26T12:04:43;3.47;;;1.30;;
34832;SDS011;55941;50.800;4.342;2023-06-26T12:07:10;3.40;;;1.23;;
34832;SDS011;55941;50.800;4.342;2023-06-26T12:09:38;10.20;;;1.55;;
34832;SDS011;55941;50.800;4.342;2023-06-26T12:12:09;2.65;;;1.05;;
34832;SDS011;55941;50.800;4.342;2023-06-26T12:14:36;4.32;;;1.08;;
34832;SDS011;55941;50.800;4.342;2023-06-26T12:17:08;8.60;;;1.67;;
34832;SDS011;55941;50.800;4.342;2023-06-26T12:19:44;3.95;;;1.23;;
34832;SDS011;55941;50.800;4.342;2023-06-26T12:22:17;5.85;;;1.45;;
34832;SDS011;55941;50.800;4.342;2023-06-26T12:25:10;10.20;;;1.27;;
34832;SDS011;55941;50.800;4.342;2023-06-26T12:27:39;8.98;;;1.48;;
34832;SDS011;55941;50.800;4.342;2023-06-26T12:30:06;4.18;;;1.60;;
34832;SDS011;55941;50.800;4.342;2023-06-26T12:32:34;3.47;;;1.20;;
34832;SDS011;55941;50.800;4.342;2023-06-26T12:35:00;5.53;;;1.58;;
34832;SDS011;55941;50.800;4.342;2023-06-26T12:37:26;8.10;;;1.42;;
34832;SDS011;55941;50.800;4.342;2023-06-26T12:39:53;4.38;;;1.30;;
34832;SDS011;55941;50.800;4.342;2023-06-26T12:42:20;5.75;;;1.10;;
34832;SDS011;55941;50.800;4.342;2023-06-26T12:44:53;6.95;;;1.48;;
34832;SDS011;55941;50.800;4.342;2023-06-26T12:47:28;8.43;;;1.48;;
34832;SDS011;55941;50.800;4.342;2023-06-26T12:49:56;4.72;;;1.50;;
34832;SDS011;55941;50.800;4.342;2023-06-26T12:52:22;7.70;;;1.58;;
34832;SDS011;55941;50.800;4.342;2023-06-26T12:54:52;5.63;;;1.90;;
34832;SDS011;55941;50.800;4.342;2023-06-26T12:57:19;10.48;;;1.63;;
34832;SDS011;55941;50.800;4.342;2023-06-26T12:59:44;27.90;;;2.97;;
34832;SDS011;55941;50.800;4.342;2023-06-26T13:02:10;4.50;;;1.30;;
34832;SDS011;55941;50.800;4.342;2023-06-26T13:04:37;8.65;;;1.77;;
34832;SDS011;55941;50.800;4.342;2023-06-26T13:07:06;6.53;;;2.15;;
34832;SDS011;55941;50.800;4.342;2023-06-26T13:09:32;9.63;;;1.73;;
34832;SDS011;55941;50.800;4.342;2023-06-26T13:11:59;5.45;;;1.80;;
34832;SDS011;55941;50.800;4.342;2023-06-26T13:14:25;9.02;;;1.80;;
34832;SDS011;55941;50.800;4.342;2023-06-26T13:16:51;7.78;;;1.48;;
34832;SDS011;55941;50.800;4.342;2023-06-26T13:19:16;12.30;;;1.75;;
34832;SDS011;55941;50.800;4.342;2023-06-26T13:21:42;5.72;;;1.55;;
34832;SDS011;55941;50.800;4.342;2023-06-26T13:24:08;3.83;;;1.20;;
34832;SDS011;55941;50.800;4.342;2023-06-26T13:26:34;6.68;;;1.48;;
34832;SDS011;55941;50.800;4.342;2023-06-26T13:29:00;9.43;;;1.60;;
34832;SDS011;55941;50.800;4.342;2023-06-26T13:31:27;4.40;;;1.50;;
34832;SDS011;55941;50.800;4.342;2023-06-26T13:33:52;4.95;;;1.52;;
34832;SDS011;55941;50.800;4.342;2023-06-26T13:36:19;6.47;;;1.40;;
34832;SDS011;55941;50.800;4.342;2023-06-26T13:38:46;5.47;;;1.65;;
34832;SDS011;55941;50.800;4.342;2023-06-26T13:41:13;5.90;;;1.90;;
34832;SDS011;55941;50.800;4.342;2023-06-26T13:43:38;5.35;;;1.50;;
34832;SDS011;55941;50.800;4.342;2023-06-26T13:46:04;6.07;;;1.33;;
34832;SDS011;55941;50.800;4.342;2023-06-26T13:48:30;4.78;;;1.38;;
34832;SDS011;55941;50.800;4.342;2023-06-26T13:50:55;9.48;;;1.33;;
34832;SDS011;55941;50.800;4.342;2023-06-26T13:53:21;8.85;;;1.73;;
34832;SDS011;55941;50.800;4.342;2023-06-26T13:55:47;5.22;;;1.50;;
34832;SDS011;55941;50.800;4.342;2023-06-26T13:58:13;6.95;;;1.70;;
34832;SDS011;55941;50.800;4.342;2023-06-26T14:00:40;6.32;;;1.40;;
34832;SDS011;55941;50.800;4.342;2023-06-26T14:03:06;4.80;;;1.42;;
34832;SDS011;55941;50.800;4.342;2023-06-26T14:05:33;7.90;;;1.67;;
34832;SDS011;55941;50.800;4.342;2023-06-26T14:07:59;6.28;;;1.67;;
34832;SDS011;55941;50.800;4.342;2023-06-26T14:10:27;6.47;;;1.88;;
34832;SDS011;55941;50.800;4.342;2023-06-26T14:12:52;11.48;;;1.88;;
34832;SDS011;55941;50.800;4.342;2023-06-26T14:15:18;5.47;;;1.63;;
34832;SDS011;55941;50.800;4.342;2023-06-26T14:17:44;6.72;;;1.42;;
34832;SDS011;55941;50.800;4.342;2023-06-26T14:20:10;10.93;;;1.60;;
34832;SDS011;55941;50.800;4.342;2023-06-26T14:22:39;7.75;;;1.50;;
34832;SDS011;55941;50.800;4.342;2023-06-26T14:25:06;8.18;;;1.60;;
34832;SDS011;55941;50.800;4.342;2023-06-26T14:27:35;8.02;;;1.27;;
34832;SDS011;55941;50.800;4.342;2023-06-26T14:30:02;6.80;;;1.42;;
34832;SDS011;55941;50.800;4.342;2023-06-26T14:32:29;3.30;;;1.05;;
34832;SDS011;55941;50.800;4.342;2023-06-26T14:34:55;3.80;;;1.42;;
34832;SDS011;55941;50.800;4.342;2023-06-26T14:37:21;6.85;;;1.50;;
34832;SDS011;55941;50.800;4.342;2023-06-26T14:39:48;7.85;;;1.38;;
34832;SDS011;55941;50.800;4.342;2023-06-26T14:42:14;6.82;;;1.98;;
34832;SDS011;55941;50.800;4.342;2023-06-26T14:44:40;5.60;;;1.50;;
34832;SDS011;55941;50.800;4.342;2023-06-26T14:47:05;4.85;;;1.63;;
34832;SDS011;55941;50.800;4.342;2023-06-26T14:49:31;6.68;;;1.65;;
34832;SDS011;55941;50.800;4.342;2023-06-26T14:51:58;11.05;;;1.90;;